Time;durP1;ratioP1;P1;durP2;ratioP2;P2;SDS_P1;SDS_P2;PMS_P1;PMS_P2;Temp;Humidity;BMP_temperature;BMP_pressure;BME280_temperature;BME280_humidity;BME280_pressure;Samples;Min_cycle;Max_cycle;Signal;HPM_P1;HPM_P2
2022/11/24 00:00:32;;;;;;;32.60;12.70;;;;;;;;;;5045240;28;20045;-66
2022/11/24 00:02:59;;;;;;;46.38;14.82;;;;;;;;;;5032696;28;20084;-66
2022/11/24 00:05:25;;;;;;;45.13;13.48;;;;;;;;;;5068624;28;20334;-66
2022/11/24 00:07:52;;;;;;;30.27;13.75;;;;;;;;;;5051534;28;20043;-66
2022/11/24 00:10:18;;;;;;;30.20;12.63;;;;;;;;;;5069742;28;20048;-66
2022/11/24 00:12:44;;;;;;;42.30;13.43;;;;;;;;;;5070379;28;20053;-66
2022/11/24 00:15:10;;;;;;;36.08;12.20;;;;;;;;;;5069200;28;20044;-67
2022/11/24 00:17:36;;;;;;;30.23;12.82;;;;;;;;;;5055737;28;20059;-66
2022/11/24 00:20:03;;;;;;;43.65;13.00;;;;;;;;;;5071504;28;20032;-66
2022/11/24 00:22:29;;;;;;;35.63;12.25;;;;;;;;;;5049340;28;20045;-67
2022/11/24 00:24:55;;;;;;;30.63;13.85;;;;;;;;;;5075530;28;20617;-66
2022/11/24 00:27:21;;;;;;;29.35;12.60;;;;;;;;;;5069889;28;20037;-66
2022/11/24 00:29:47;;;;;;;39.58;12.27;;;;;;;;;;5071433;28;20075;-66
2022/11/24 00:32:14;;;;;;;40.97;12.70;;;;;;;;;;5069505;28;20037;-66
2022/11/24 00:34:40;;;;;;;31.92;12.80;;;;;;;;;;5069384;28;20523;-66
2022/11/24 00:37:07;;;;;;;36.08;12.65;;;;;;;;;;5068971;28;20372;-66
2022/11/24 00:39:33;;;;;;;40.08;12.27;;;;;;;;;;5070533;28;20078;-66
2022/11/24 00:41:59;;;;;;;35.85;12.75;;;;;;;;;;5053266;28;20161;-66
2022/11/24 00:44:25;;;;;;;43.90;12.57;;;;;;;;;;5071206;28;20064;-67
2022/11/24 00:46:51;;;;;;;40.67;12.70;;;;;;;;;;5051461;28;20070;-66
2022/11/24 00:49:17;;;;;;;42.80;13.55;;;;;;;;;;5067917;28;20231;-66
2022/11/24 00:51:43;;;;;;;33.50;12.20;;;;;;;;;;5048930;28;20040;-66
2022/11/24 00:54:10;;;;;;;30.58;11.38;;;;;;;;;;5049155;28;20044;-66
2022/11/24 00:56:36;;;;;;;35.17;11.30;;;;;;;;;;5069094;28;20163;-66
2022/11/24 00:59:03;;;;;;;39.83;12.30;;;;;;;;;;5052004;28;20044;-66
2022/11/24 01:01:30;;;;;;;37.03;11.30;;;;;;;;;;5068882;28;20553;-67
2022/11/24 01:03:56;;;;;;;45.10;12.85;;;;;;;;;;5069864;28;20044;-66
2022/11/24 01:06:24;;;;;;;50.83;13.55;;;;;;;;;;5047392;28;20052;-67
2022/11/24 01:08:50;;;;;;;31.90;11.73;;;;;;;;;;5032306;28;20051;-67
2022/11/24 01:11:16;;;;;;;45.50;13.18;;;;;;;;;;5067826;28;20044;-67
2022/11/24 01:13:44;;;;;;;36.97;10.75;;;;;;;;;;5051277;28;20771;-67
2022/11/24 01:16:17;;;;;;;41.60;11.70;;;;;;;;;;5068243;28;21853;-67
2022/11/24 01:18:43;;;;;;;49.65;11.52;;;;;;;;;;5036770;28;20067;-67
2022/11/24 01:21:09;;;;;;;38.22;9.15;;;;;;;;;;5052145;28;20102;-67
2022/11/24 01:23:35;;;;;;;40.05;9.50;;;;;;;;;;5071985;28;20536;-67
2022/11/24 01:26:04;;;;;;;37.25;8.60;;;;;;;;;;5066646;28;20032;-67
2022/11/24 01:28:30;;;;;;;39.10;9.30;;;;;;;;;;5068509;28;20051;-67
2022/11/24 01:30:58;;;;;;;34.33;8.88;;;;;;;;;;5070071;28;20067;-67
2022/11/24 01:33:25;;;;;;;41.42;8.38;;;;;;;;;;5046942;28;20523;-67
2022/11/24 01:35:51;;;;;;;40.03;8.55;;;;;;;;;;5047881;28;20503;-66
2022/11/24 01:38:17;;;;;;;38.90;9.30;;;;;;;;;;5048328;28;20127;-66
2022/11/24 01:40:43;;;;;;;33.65;8.55;;;;;;;;;;5049062;28;20395;-66
2022/11/24 01:43:17;;;;;;;38.15;8.77;;;;;;;;;;5067459;28;20048;-66
2022/11/24 01:45:43;;;;;;;37.08;8.95;;;;;;;;;;5068608;28;20520;-66
2022/11/24 01:48:14;;;;;;;42.60;8.80;;;;;;;;;;5049574;28;20089;-66
2022/11/24 01:50:41;;;;;;;38.45;8.50;;;;;;;;;;5066377;28;20060;-66
2022/11/24 01:53:07;;;;;;;38.55;8.70;;;;;;;;;;5069392;28;20047;-66
2022/11/24 01:55:36;;;;;;;35.63;7.93;;;;;;;;;;5065387;28;20036;-66
2022/11/24 01:58:07;;;;;;;51.00;8.45;;;;;;;;;;5068052;28;20122;-66
2022/11/24 02:00:36;;;;;;;32.45;7.30;;;;;;;;;;5047201;28;20158;-66
2022/11/24 02:03:02;;;;;;;32.42;7.32;;;;;;;;;;5066844;28;20040;-66
2022/11/24 02:05:33;;;;;;;32.58;7.45;;;;;;;;;;5068127;28;20040;-66
2022/11/24 02:08:00;;;;;;;28.05;6.57;;;;;;;;;;5065370;28;20061;-66
2022/11/24 02:10:26;;;;;;;27.45;6.65;;;;;;;;;;5065377;28;20052;-66
2022/11/24 02:12:54;;;;;;;33.80;6.80;;;;;;;;;;5070197;28;20332;-66
2022/11/24 02:15:20;;;;;;;33.38;5.65;;;;;;;;;;5069662;28;20163;-66
2022/11/24 02:17:47;;;;;;;29.35;6.57;;;;;;;;;;5067517;28;20748;-66
2022/11/24 02:20:14;;;;;;;33.85;5.18;;;;;;;;;;5072580;28;20036;-66
2022/11/24 02:22:47;;;;;;;32.15;6.30;;;;;;;;;;5070704;28;20067;-66
2022/11/24 02:25:23;;;;;;;25.52;5.03;;;;;;;;;;5065027;28;20050;-66
2022/11/24 02:27:50;;;;;;;33.83;5.43;;;;;;;;;;5066551;28;20040;-66
2022/11/24 02:30:16;;;;;;;23.15;4.28;;;;;;;;;;5066401;28;20044;-66
2022/11/24 02:32:43;;;;;;;26.83;6.47;;;;;;;;;;5065012;28;20398;-66
2022/11/24 02:35:11;;;;;;;24.73;5.15;;;;;;;;;;5049694;28;20049;-67
2022/11/24 02:37:37;;;;;;;32.50;6.30;;;;;;;;;;5053775;28;20053;-66
2022/11/24 02:40:03;;;;;;;32.85;6.75;;;;;;;;;;5066311;28;20467;-66
2022/11/24 02:42:31;;;;;;;34.90;5.82;;;;;;;;;;5071249;28;20044;-66
2022/11/24 02:44:58;;;;;;;34.58;6.15;;;;;;;;;;5051301;28;20075;-66
2022/11/24 02:47:24;;;;;;;29.98;6.00;;;;;;;;;;5064469;28;20044;-66
2022/11/24 02:49:51;;;;;;;29.58;6.00;;;;;;;;;;5050335;28;20123;-66
2022/11/24 02:52:17;;;;;;;36.05;5.72;;;;;;;;;;5065242;28;20083;-66
2022/11/24 02:54:43;;;;;;;23.92;4.50;;;;;;;;;;5052663;28;20052;-66
2022/11/24 02:57:10;;;;;;;24.08;5.10;;;;;;;;;;5048814;28;20083;-66
2022/11/24 02:59:36;;;;;;;26.40;4.82;;;;;;;;;;5065269;28;20431;-66
2022/11/24 03:02:03;;;;;;;25.80;4.93;;;;;;;;;;5047060;28;20041;-66
2022/11/24 03:04:29;;;;;;;39.05;6.32;;;;;;;;;;5067274;28;20045;-66
2022/11/24 03:06:55;;;;;;;27.42;5.00;;;;;;;;;;5050589;28;20113;-66
2022/11/24 03:09:21;;;;;;;30.55;5.38;;;;;;;;;;5048177;28;20129;-66
2022/11/24 03:11:47;;;;;;;30.95;6.80;;;;;;;;;;5062482;28;20076;-66
2022/11/24 03:14:13;;;;;;;29.67;5.75;;;;;;;;;;5049337;28;20545;-66
2022/11/24 03:16:40;;;;;;;31.60;6.35;;;;;;;;;;5067215;28;20056;-66
2022/11/24 03:19:06;;;;;;;29.13;6.30;;;;;;;;;;5050414;28;20036;-66
2022/11/24 03:21:32;;;;;;;36.35;6.65;;;;;;;;;;5068243;28;20048;-66
2022/11/24 03:23:59;;;;;;;27.40;5.53;;;;;;;;;;5069068;28;20036;-66
2022/11/24 03:26:25;;;;;;;36.33;6.18;;;;;;;;;;5071422;28;20152;-66
2022/11/24 03:28:57;;;;;;;35.60;6.07;;;;;;;;;;5064923;28;20395;-66
2022/11/24 03:31:23;;;;;;;27.45;5.53;;;;;;;;;;5052090;28;20051;-66
2022/11/24 03:33:50;;;;;;;34.03;5.55;;;;;;;;;;5046787;28;20466;-66
2022/11/24 03:36:16;;;;;;;39.00;5.55;;;;;;;;;;5051448;28;21301;-66
2022/11/24 03:38:42;;;;;;;25.67;5.18;;;;;;;;;;5068628;28;20281;-66
2022/11/24 03:41:08;;;;;;;38.58;5.78;;;;;;;;;;5049183;28;20044;-66
2022/11/24 03:43:34;;;;;;;25.80;4.70;;;;;;;;;;5070840;28;20408;-66
2022/11/24 03:46:01;;;;;;;29.95;5.28;;;;;;;;;;5067163;28;20053;-66
2022/11/24 03:48:27;;;;;;;29.98;5.07;;;;;;;;;;5068208;28;20043;-66
2022/11/24 03:50:55;;;;;;;31.83;5.43;;;;;;;;;;5068355;28;20807;-66
2022/11/24 03:53:21;;;;;;;29.67;5.05;;;;;;;;;;5065657;28;20059;-66
2022/11/24 03:55:47;;;;;;;35.80;6.28;;;;;;;;;;5062310;28;20040;-66
2022/11/24 03:58:13;;;;;;;25.25;5.20;;;;;;;;;;5049227;28;20048;-66
2022/11/24 04:00:39;;;;;;;30.42;4.97;;;;;;;;;;5071877;28;20437;-66
2022/11/24 04:03:06;;;;;;;31.58;6.13;;;;;;;;;;5065945;28;20739;-66
2022/11/24 04:05:35;;;;;;;27.60;5.20;;;;;;;;;;5063000;28;21395;-66
2022/11/24 04:08:02;;;;;;;41.25;6.22;;;;;;;;;;5063321;28;20078;-66
2022/11/24 04:10:29;;;;;;;36.90;5.03;;;;;;;;;;5066696;28;20060;-66
2022/11/24 04:12:55;;;;;;;31.67;5.15;;;;;;;;;;5067863;28;20065;-66
2022/11/24 04:15:21;;;;;;;36.60;6.25;;;;;;;;;;5045878;28;20055;-66
2022/11/24 04:17:48;;;;;;;25.27;4.32;;;;;;;;;;5066049;28;20075;-66
2022/11/24 04:20:15;;;;;;;24.00;5.20;;;;;;;;;;5045177;28;20044;-66
2022/11/24 04:22:41;;;;;;;32.33;5.38;;;;;;;;;;5067307;28;20128;-66
2022/11/24 04:25:08;;;;;;;25.20;5.13;;;;;;;;;;5061878;28;20109;-66
2022/11/24 04:27:35;;;;;;;28.00;5.20;;;;;;;;;;5068421;28;20677;-66
2022/11/24 04:30:01;;;;;;;30.67;4.45;;;;;;;;;;5069994;28;20056;-66
2022/11/24 04:32:28;;;;;;;25.65;5.00;;;;;;;;;;5060945;28;20070;-66
2022/11/24 04:34:54;;;;;;;27.70;5.05;;;;;;;;;;5069017;28;20045;-66
2022/11/24 04:37:20;;;;;;;26.45;4.65;;;;;;;;;;5045745;28;20044;-66
2022/11/24 04:39:46;;;;;;;27.60;4.78;;;;;;;;;;5048204;28;20106;-66
2022/11/24 04:42:12;;;;;;;27.23;4.60;;;;;;;;;;5050504;28;20064;-66
2022/11/24 04:44:38;;;;;;;26.60;5.13;;;;;;;;;;5071239;28;20249;-66
2022/11/24 04:47:05;;;;;;;19.85;3.63;;;;;;;;;;5065316;28;20055;-66
2022/11/24 04:49:31;;;;;;;24.20;4.22;;;;;;;;;;5054650;28;20051;-66
2022/11/24 04:51:58;;;;;;;17.90;3.63;;;;;;;;;;5051482;28;20048;-66
2022/11/24 04:54:24;;;;;;;30.73;5.25;;;;;;;;;;5072027;28;20044;-66
2022/11/24 04:56:51;;;;;;;27.80;6.03;;;;;;;;;;5075393;28;20067;-66
2022/11/24 04:59:17;;;;;;;29.38;5.13;;;;;;;;;;5066216;28;20036;-66
2022/11/24 05:01:44;;;;;;;22.75;4.95;;;;;;;;;;5033267;28;20452;-66
2022/11/24 05:04:11;;;;;;;18.50;3.75;;;;;;;;;;5068795;28;20439;-66
2022/11/24 05:06:38;;;;;;;29.30;4.68;;;;;;;;;;5069857;28;20040;-66
2022/11/24 05:09:04;;;;;;;23.65;4.60;;;;;;;;;;5067748;28;20052;-66
2022/11/24 05:11:30;;;;;;;27.80;3.67;;;;;;;;;;5051496;28;20052;-66
2022/11/24 05:13:56;;;;;;;24.88;4.25;;;;;;;;;;5068964;28;20426;-66
2022/11/24 05:16:23;;;;;;;29.40;3.92;;;;;;;;;;5070314;28;20515;-66
2022/11/24 05:18:49;;;;;;;25.40;4.50;;;;;;;;;;5070166;28;20380;-66
2022/11/24 05:21:15;;;;;;;27.77;5.03;;;;;;;;;;5068365;28;20435;-66
2022/11/24 05:23:41;;;;;;;22.08;4.28;;;;;;;;;;5073783;28;20044;-66
2022/11/24 05:26:08;;;;;;;20.23;3.78;;;;;;;;;;5069109;28;20158;-66
2022/11/24 05:28:34;;;;;;;17.27;4.40;;;;;;;;;;5051843;28;20036;-66
2022/11/24 05:31:00;;;;;;;19.98;3.92;;;;;;;;;;5067070;28;20373;-66
2022/11/24 05:33:27;;;;;;;23.48;4.13;;;;;;;;;;5068520;28;20041;-66
2022/11/24 05:35:54;;;;;;;26.15;4.55;;;;;;;;;;5071642;28;20036;-65
2022/11/24 05:38:21;;;;;;;22.08;4.38;;;;;;;;;;5068635;28;20047;-66
2022/11/24 05:40:47;;;;;;;23.70;5.07;;;;;;;;;;5050797;28;20044;-67
2022/11/24 05:43:14;;;;;;;25.05;5.40;;;;;;;;;;5072487;28;20163;-67
2022/11/24 05:45:41;;;;;;;28.73;4.80;;;;;;;;;;5069373;28;20040;-67
2022/11/24 05:48:08;;;;;;;20.73;4.28;;;;;;;;;;5070599;28;20035;-67
2022/11/24 05:50:34;;;;;;;23.02;3.90;;;;;;;;;;5053512;28;20535;-66
2022/11/24 05:53:04;;;;;;;29.50;4.95;;;;;;;;;;5052874;28;20048;-67
2022/11/24 05:55:30;;;;;;;22.35;3.72;;;;;;;;;;5072820;28;20032;-67
2022/11/24 05:57:58;;;;;;;23.58;4.80;;;;;;;;;;5056370;28;20130;-67
2022/11/24 06:00:24;;;;;;;38.35;6.18;;;;;;;;;;5052167;28;20078;-67
2022/11/24 06:02:50;;;;;;;29.67;5.72;;;;;;;;;;5060398;28;20036;-67
2022/11/24 06:05:16;;;;;;;26.88;5.40;;;;;;;;;;5053630;28;20041;-67
2022/11/24 06:07:43;;;;;;;29.02;5.25;;;;;;;;;;5053484;28;21666;-67
2022/11/24 06:10:09;;;;;;;27.08;4.70;;;;;;;;;;5071332;28;20044;-67
2022/11/24 06:12:35;;;;;;;28.60;4.95;;;;;;;;;;5075991;28;20502;-67
2022/11/24 06:15:01;;;;;;;26.30;5.80;;;;;;;;;;5075902;28;20563;-67
2022/11/24 06:17:28;;;;;;;19.52;4.97;;;;;;;;;;5074223;28;20046;-67
2022/11/24 06:19:54;;;;;;;23.85;4.90;;;;;;;;;;5055695;28;20044;-67
2022/11/24 06:22:20;;;;;;;21.80;4.88;;;;;;;;;;5078325;28;20090;-66
2022/11/24 06:24:46;;;;;;;34.60;6.05;;;;;;;;;;5073823;28;20068;-67
2022/11/24 06:27:13;;;;;;;22.95;4.68;;;;;;;;;;5070992;28;20056;-66
2022/11/24 06:29:39;;;;;;;32.45;5.90;;;;;;;;;;5079718;28;20081;-66
2022/11/24 06:32:05;;;;;;;34.72;6.60;;;;;;;;;;5074943;28;20063;-67
2022/11/24 06:34:31;;;;;;;25.65;5.65;;;;;;;;;;5079490;28;20161;-67
2022/11/24 06:36:58;;;;;;;36.88;6.57;;;;;;;;;;5049764;28;20086;-67
2022/11/24 06:39:24;;;;;;;29.65;6.15;;;;;;;;;;5063453;28;20549;-66
2022/11/24 06:41:51;;;;;;;23.48;5.20;;;;;;;;;;5069970;28;20499;-67
2022/11/24 06:44:17;;;;;;;38.13;7.05;;;;;;;;;;5076959;28;20047;-67
2022/11/24 06:46:43;;;;;;;34.05;5.50;;;;;;;;;;5077869;28;20044;-67
2022/11/24 06:49:09;;;;;;;23.13;5.22;;;;;;;;;;5058192;28;20048;-67
2022/11/24 06:51:36;;;;;;;26.58;5.57;;;;;;;;;;5060496;28;20476;-67
2022/11/24 06:54:05;;;;;;;30.30;5.70;;;;;;;;;;5075585;28;20064;-67
2022/11/24 06:56:32;;;;;;;23.75;5.68;;;;;;;;;;5058556;28;20060;-67
2022/11/24 06:58:59;;;;;;;28.15;5.40;;;;;;;;;;5057588;28;20040;-67
2022/11/24 07:01:26;;;;;;;37.17;6.18;;;;;;;;;;5060410;28;20067;-67
2022/11/24 07:03:53;;;;;;;20.83;5.78;;;;;;;;;;5057739;28;20215;-67
2022/11/24 07:06:20;;;;;;;20.60;5.10;;;;;;;;;;5076324;28;20078;-67
2022/11/24 07:08:46;;;;;;;23.77;5.68;;;;;;;;;;5077401;28;20044;-67
2022/11/24 07:11:14;;;;;;;18.15;4.22;;;;;;;;;;5058411;28;20590;-67
2022/11/24 07:13:42;;;;;;;21.00;4.80;;;;;;;;;;5081678;28;20044;-67
2022/11/24 07:16:11;;;;;;;19.08;4.38;;;;;;;;;;5058681;28;20048;-67
2022/11/24 07:18:37;;;;;;;20.08;4.80;;;;;;;;;;5054436;28;20048;-67
2022/11/24 07:21:04;;;;;;;15.60;5.40;;;;;;;;;;5052806;28;20155;-67
2022/11/24 07:23:30;;;;;;;21.70;4.07;;;;;;;;;;5063216;28;20080;-67
2022/11/24 07:25:56;;;;;;;19.10;4.85;;;;;;;;;;5059124;28;20044;-67
2022/11/24 07:28:22;;;;;;;29.23;4.90;;;;;;;;;;5079588;28;20037;-67
2022/11/24 07:30:48;;;;;;;23.30;4.57;;;;;;;;;;5060718;28;20109;-67
2022/11/24 07:33:17;;;;;;;13.52;3.72;;;;;;;;;;5059517;28;20514;-67
2022/11/24 07:35:44;;;;;;;17.58;3.58;;;;;;;;;;5077931;28;22007;-67
2022/11/24 07:38:11;;;;;;;15.35;3.85;;;;;;;;;;5060272;28;20122;-67
2022/11/24 07:40:37;;;;;;;21.52;4.93;;;;;;;;;;5078771;28;20357;-67
2022/11/24 07:43:03;;;;;;;20.23;5.15;;;;;;;;;;5060726;28;20932;-67
2022/11/24 07:45:29;;;;;;;18.55;4.78;;;;;;;;;;5080486;28;20138;-67
2022/11/24 07:47:55;;;;;;;22.83;5.28;;;;;;;;;;5080470;28;20044;-67
2022/11/24 07:50:21;;;;;;;26.92;5.53;;;;;;;;;;5078675;28;20044;-67
2022/11/24 07:52:47;;;;;;;21.85;5.55;;;;;;;;;;5077412;28;20056;-67
2022/11/24 07:55:14;;;;;;;23.60;4.88;;;;;;;;;;5058887;28;21343;-67
2022/11/24 07:57:40;;;;;;;22.35;5.45;;;;;;;;;;5078910;28;20048;-67
2022/11/24 08:00:06;;;;;;;20.30;5.28;;;;;;;;;;5080664;28;20040;-67
2022/11/24 08:02:33;;;;;;;17.17;5.30;;;;;;;;;;5080070;28;20046;-67
2022/11/24 08:04:59;;;;;;;18.95;5.47;;;;;;;;;;5079044;28;20048;-67
2022/11/24 08:07:25;;;;;;;21.05;5.10;;;;;;;;;;5060084;28;20114;-67
2022/11/24 08:09:51;;;;;;;22.08;4.80;;;;;;;;;;5078016;28;20052;-67
2022/11/24 08:12:22;;;;;;;22.95;5.68;;;;;;;;;;5078392;28;20041;-68
2022/11/24 08:14:49;;;;;;;23.50;6.13;;;;;;;;;;5080505;28;20430;-66
2022/11/24 08:17:15;;;;;;;23.27;6.22;;;;;;;;;;5077593;28;20046;-67
2022/11/24 08:19:41;;;;;;;22.27;5.93;;;;;;;;;;5062138;28;20036;-67
2022/11/24 08:22:08;;;;;;;22.33;5.97;;;;;;;;;;5057599;28;20475;-67
2022/11/24 08:24:34;;;;;;;20.20;6.20;;;;;;;;;;5064430;28;20083;-67
2022/11/24 08:27:00;;;;;;;23.08;5.85;;;;;;;;;;5062798;28;20090;-67
2022/11/24 08:29:28;;;;;;;28.17;7.28;;;;;;;;;;5064651;28;20083;-67
2022/11/24 08:31:56;;;;;;;27.85;7.20;;;;;;;;;;5084141;28;20059;-67
2022/11/24 08:34:23;;;;;;;19.40;6.43;;;;;;;;;;5081019;28;20068;-67
2022/11/24 08:36:50;;;;;;;28.63;7.68;;;;;;;;;;5078510;28;20049;-67
2022/11/24 08:39:16;;;;;;;22.27;6.13;;;;;;;;;;5077457;28;20479;-67
2022/11/24 08:41:42;;;;;;;24.30;7.05;;;;;;;;;;5079767;28;20087;-67
2022/11/24 08:44:09;;;;;;;20.42;6.60;;;;;;;;;;5080486;28;20032;-67
2022/11/24 08:46:36;;;;;;;24.13;6.32;;;;;;;;;;5079488;28;20102;-67
2022/11/24 08:49:04;;;;;;;22.95;6.65;;;;;;;;;;5081902;28;20040;-67
2022/11/24 08:51:30;;;;;;;24.80;6.57;;;;;;;;;;5060863;28;20388;-67
2022/11/24 08:53:57;;;;;;;22.63;6.47;;;;;;;;;;5055797;28;20522;-65
2022/11/24 08:56:24;;;;;;;25.85;6.25;;;;;;;;;;5053171;28;20052;-66
2022/11/24 08:58:50;;;;;;;20.80;6.40;;;;;;;;;;5054554;28;20098;-66
2022/11/24 09:01:17;;;;;;;18.33;5.68;;;;;;;;;;5053977;28;20076;-66
2022/11/24 09:03:44;;;;;;;20.45;6.30;;;;;;;;;;5052326;28;20045;-66
2022/11/24 09:06:11;;;;;;;18.08;5.60;;;;;;;;;;5053859;28;20045;-66
2022/11/24 09:08:37;;;;;;;17.90;5.78;;;;;;;;;;5050831;28;20183;-66
2022/11/24 09:11:05;;;;;;;16.38;5.57;;;;;;;;;;5058387;28;20083;-66
2022/11/24 09:13:31;;;;;;;16.42;5.32;;;;;;;;;;5052033;28;20049;-66
2022/11/24 09:16:03;;;;;;;14.73;4.80;;;;;;;;;;5054877;28;20174;-66
2022/11/24 09:18:29;;;;;;;15.30;4.65;;;;;;;;;;5052840;28;20056;-66
2022/11/24 09:20:57;;;;;;;14.95;4.35;;;;;;;;;;5053899;28;20373;-66
2022/11/24 09:23:23;;;;;;;14.93;3.45;;;;;;;;;;5054565;28;20041;-66
2022/11/24 09:25:49;;;;;;;9.90;2.67;;;;;;;;;;5052747;28;20064;-66
2022/11/24 09:28:15;;;;;;;13.10;2.90;;;;;;;;;;5055564;28;20041;-67
2022/11/24 09:30:41;;;;;;;10.35;3.22;;;;;;;;;;5051096;28;20041;-67
2022/11/24 09:33:07;;;;;;;10.00;2.50;;;;;;;;;;5054522;28;20123;-66
2022/11/24 09:35:36;;;;;;;10.90;2.10;;;;;;;;;;5056121;28;20037;-67
2022/11/24 09:38:02;;;;;;;9.60;2.33;;;;;;;;;;5049822;28;20489;-66
2022/11/24 09:40:29;;;;;;;11.70;2.67;;;;;;;;;;5055828;28;20374;-66
2022/11/24 09:43:02;;;;;;;6.30;2.03;;;;;;;;;;5054272;28;20068;-66
2022/11/24 09:45:39;;;;;;;7.13;1.60;;;;;;;;;;5056056;28;20097;-67
2022/11/24 09:48:14;;;;;;;8.45;1.80;;;;;;;;;;5052755;28;20045;-66
2022/11/24 09:50:40;;;;;;;8.63;2.30;;;;;;;;;;5056073;28;20055;-66
2022/11/24 09:53:07;;;;;;;9.48;2.60;;;;;;;;;;5073168;28;20206;-66
2022/11/24 09:55:37;;;;;;;12.80;2.60;;;;;;;;;;5074275;28;20133;-66
2022/11/24 09:58:10;;;;;;;9.10;2.13;;;;;;;;;;5071328;28;20052;-66
2022/11/24 10:00:36;;;;;;;11.33;2.50;;;;;;;;;;5055359;28;20045;-66
2022/11/24 10:03:03;;;;;;;10.60;3.72;;;;;;;;;;5055998;28;20165;-66
2022/11/24 10:05:33;;;;;;;10.25;2.80;;;;;;;;;;5075668;28;20044;-66
2022/11/24 10:08:08;;;;;;;8.95;2.35;;;;;;;;;;5060209;28;20080;-66
2022/11/24 10:10:43;;;;;;;13.35;3.10;;;;;;;;;;5074177;28;20045;-66
2022/11/24 10:13:23;;;;;;;12.35;3.25;;;;;;;;;;5064603;28;20142;-66
2022/11/24 10:16:08;;;;;;;9.70;3.70;;;;;;;;;;5077976;28;20234;-66
2022/11/24 10:18:42;;;;;;;12.43;3.00;;;;;;;;;;5058913;28;20055;-66
2022/11/24 10:21:26;;;;;;;9.68;3.38;;;;;;;;;;5076155;28;20360;-66
2022/11/24 10:23:54;;;;;;;10.57;3.50;;;;;;;;;;5053101;28;20178;-66
2022/11/24 10:26:31;;;;;;;11.88;3.53;;;;;;;;;;5062119;28;20093;-66
2022/11/24 10:28:57;;;;;;;9.75;3.65;;;;;;;;;;5070998;28;20044;-67
2022/11/24 10:31:29;;;;;;;15.13;3.47;;;;;;;;;;5077460;28;20440;-66
2022/11/24 10:33:57;;;;;;;11.32;4.07;;;;;;;;;;5060128;28;20115;-66
2022/11/24 10:36:31;;;;;;;8.88;3.30;;;;;;;;;;5057239;28;20056;-67
2022/11/24 10:38:57;;;;;;;;;;;;;;;;;;5077292;28;20090;-66
2022/11/24 10:41:27;;;;;;;11.70;4.38;;;;;;;;;;5076614;28;19928;-66
2022/11/24 10:43:57;;;;;;;12.05;3.83;;;;;;;;;;5082461;28;20127;-67
2022/11/24 10:46:25;;;;;;;12.57;3.65;;;;;;;;;;5058466;28;20032;-67
2022/11/24 10:48:53;;;;;;;14.52;4.43;;;;;;;;;;5085287;28;20523;-67
2022/11/24 10:51:36;;;;;;;9.73;4.18;;;;;;;;;;5077879;28;20105;-67
2022/11/24 10:54:15;;;;;;;13.80;4.38;;;;;;;;;;5075931;28;20044;-67
2022/11/24 10:56:42;;;;;;;11.55;4.47;;;;;;;;;;5073623;28;20044;-67
2022/11/24 10:59:24;;;;;;;11.00;3.92;;;;;;;;;;5073364;28;20090;-66
2022/11/24 11:01:51;;;;;;;13.90;4.32;;;;;;;;;;5072637;28;20412;-66
2022/11/24 11:04:19;;;;;;;14.80;3.95;;;;;;;;;;5072496;28;20040;-66
2022/11/24 11:06:45;;;;;;;10.98;3.83;;;;;;;;;;5079024;28;20123;-66
2022/11/24 11:09:18;;;;;;;11.20;4.07;;;;;;;;;;5056886;28;20051;-66
2022/11/24 11:11:47;;;;;;;11.88;4.35;;;;;;;;;;5078289;28;20041;-65
2022/11/24 11:14:28;;;;;;;12.45;4.32;;;;;;;;;;5072428;28;20046;-65
2022/11/24 11:16:56;;;;;;;11.88;4.07;;;;;;;;;;5082627;28;20101;-66
2022/11/24 11:19:36;;;;;;;11.68;3.75;;;;;;;;;;5080548;28;20101;-66
2022/11/24 11:22:04;;;;;;;15.02;4.10;;;;;;;;;;5082917;28;20047;-65
2022/11/24 11:24:30;;;;;;;16.70;4.53;;;;;;;;;;5082714;28;20399;-66
2022/11/24 11:27:03;;;;;;;13.18;3.92;;;;;;;;;;5081601;28;20040;-66
2022/11/24 11:29:30;;;;;;;9.48;4.07;;;;;;;;;;5062240;28;20044;-66
2022/11/24 11:31:58;;;;;;;11.05;3.45;;;;;;;;;;5063068;28;20102;-66
2022/11/24 11:34:25;;;;;;;13.15;3.42;;;;;;;;;;5083307;28;20047;-65
2022/11/24 11:36:52;;;;;;;13.75;3.47;;;;;;;;;;5079534;28;20155;-65
2022/11/24 11:39:18;;;;;;;10.68;3.42;;;;;;;;;;5059956;28;20048;-65
2022/11/24 11:41:47;;;;;;;10.80;3.88;;;;;;;;;;5078401;28;20093;-65
2022/11/24 11:44:29;;;;;;;12.43;4.20;;;;;;;;;;5078382;28;20044;-65
2022/11/24 11:46:57;;;;;;;14.05;3.70;;;;;;;;;;5072242;28;20108;-66
2022/11/24 11:49:24;;;;;;;15.48;4.47;;;;;;;;;;5070996;28;20059;-66
2022/11/24 11:52:11;;;;;;;11.82;3.83;;;;;;;;;;5072693;28;21057;-66
2022/11/24 11:54:37;;;;;;;15.90;4.13;;;;;;;;;;5070827;28;20098;-65
2022/11/24 11:57:13;;;;;;;17.02;4.10;;;;;;;;;;5075316;28;20390;-65
2022/11/24 11:59:54;;;;;;;14.45;4.82;;;;;;;;;;5078063;28;20059;-66
2022/11/24 12:02:40;;;;;;;15.32;4.57;;;;;;;;;;5056613;28;20076;-67
2022/11/24 12:05:21;;;;;;;14.07;3.60;;;;;;;;;;5061554;28;20056;-67
2022/11/24 12:07:48;;;;;;;18.38;4.10;;;;;;;;;;5078447;28;20442;-66
2022/11/24 12:10:21;;;;;;;18.80;4.10;;;;;;;;;;5060178;28;20060;-66
2022/11/24 12:12:57;;;;;;;17.10;3.60;;;;;;;;;;5062912;28;20040;-66
2022/11/24 12:15:30;;;;;;;11.95;3.10;;;;;;;;;;5057925;28;20040;-66
2022/11/24 12:18:15;;;;;;;14.65;4.40;;;;;;;;;;5082247;28;20036;-66
2022/11/24 12:20:47;;;;;;;17.00;4.03;;;;;;;;;;5083612;28;20470;-66
2022/11/24 12:23:20;;;;;;;15.02;3.47;;;;;;;;;;5063381;28;20078;-66
2022/11/24 12:26:04;;;;;;;16.80;3.80;;;;;;;;;;5090122;28;20063;-66
2022/11/24 12:28:38;;;;;;;15.63;3.47;;;;;;;;;;5076257;28;20040;-65
2022/11/24 12:31:06;;;;;;;14.52;2.90;;;;;;;;;;5074893;28;20138;-66
2022/11/24 12:33:55;;;;;;;15.60;3.13;;;;;;;;;;5098522;28;20071;-66
2022/11/24 12:36:31;;;;;;;12.55;2.80;;;;;;;;;;5077718;28;20221;-66
2022/11/24 12:39:05;;;;;;;20.05;4.93;;;;;;;;;;5097280;28;20078;-65
2022/11/24 12:41:42;;;;;;;12.93;3.33;;;;;;;;;;5075904;28;20044;-66
2022/11/24 12:44:16;;;;;;;12.52;2.92;;;;;;;;;;5096393;28;20043;-66
2022/11/24 12:46:50;;;;;;;13.77;2.92;;;;;;;;;;5098058;28;20081;-65
2022/11/24 12:49:26;;;;;;;16.92;3.17;;;;;;;;;;5097938;28;20082;-66
2022/11/24 12:51:55;;;;;;;14.45;2.80;;;;;;;;;;5097910;28;20071;-66
2022/11/24 12:54:22;;;;;;;18.88;3.70;;;;;;;;;;5092061;28;20669;-66
2022/11/24 12:56:53;;;;;;;17.65;3.60;;;;;;;;;;5063211;28;20052;-66
2022/11/24 12:59:27;;;;;;;15.23;2.60;;;;;;;;;;5080104;28;20055;-66
2022/11/24 13:02:19;;;;;;;10.57;2.45;;;;;;;;;;5079930;28;20040;-67
2022/11/24 13:04:51;;;;;;;17.55;3.42;;;;;;;;;;5065138;28;20083;-66
2022/11/24 13:07:21;;;;;;;13.80;2.60;;;;;;;;;;5084025;28;20040;-66
2022/11/24 13:10:06;;;;;;;15.50;2.55;;;;;;;;;;5055910;28;20115;-66
2022/11/24 13:12:32;;;;;;;17.45;2.67;;;;;;;;;;5077332;28;20484;-66
2022/11/24 13:14:58;;;;;;;18.17;3.47;;;;;;;;;;5081008;28;20771;-66
2022/11/24 13:17:33;;;;;;;17.85;4.10;;;;;;;;;;5080971;28;20048;-66
2022/11/24 13:20:20;;;;;;;20.55;3.70;;;;;;;;;;5080459;28;20067;-66
2022/11/24 13:22:54;;;;;;;13.05;2.60;;;;;;;;;;5076308;28;20090;-66
2022/11/24 13:25:22;;;;;;;16.13;3.08;;;;;;;;;;5075297;28;20404;-66
2022/11/24 13:27:51;;;;;;;16.35;3.97;;;;;;;;;;5059712;28;20040;-66
2022/11/24 13:30:32;;;;;;;16.27;3.00;;;;;;;;;;5077139;28;20040;-67
2022/11/24 13:33:01;;;;;;;19.23;3.92;;;;;;;;;;5061956;28;20071;-66
2022/11/24 13:35:27;;;;;;;17.50;2.95;;;;;;;;;;5058615;28;20480;-67
2022/11/24 13:37:53;;;;;;;17.67;4.28;;;;;;;;;;5075942;28;20483;-66
2022/11/24 13:40:21;;;;;;;15.95;2.65;;;;;;;;;;5077513;28;20426;-66
2022/11/24 13:42:54;;;;;;;17.48;3.30;;;;;;;;;;5075746;28;20047;-66
2022/11/24 13:45:39;;;;;;;18.45;3.40;;;;;;;;;;5076421;28;20060;-66
2022/11/24 13:48:18;;;;;;;17.73;2.78;;;;;;;;;;5078127;28;20048;-66
2022/11/24 13:50:52;;;;;;;22.60;3.92;;;;;;;;;;5078117;28;20048;-65
2022/11/24 13:53:19;;;;;;;13.80;3.17;;;;;;;;;;5076064;28;20169;-65
2022/11/24 13:55:54;;;;;;;14.15;3.00;;;;;;;;;;5073932;28;20036;-65
2022/11/24 13:58:25;;;;;;;16.48;3.22;;;;;;;;;;5075595;28;20044;-72
2022/11/24 14:01:01;;;;;;;17.23;4.20;;;;;;;;;;5078412;28;20113;-66
2022/11/24 14:03:30;;;;;;;21.58;3.60;;;;;;;;;;5059864;28;20074;-66
2022/11/24 14:05:58;;;;;;;21.38;3.45;;;;;;;;;;5078722;28;20048;-66
2022/11/24 14:08:25;;;;;;;27.35;3.28;;;;;;;;;;5064075;28;20047;-66
2022/11/24 14:10:53;;;;;;;20.90;3.70;;;;;;;;;;5080944;28;20040;-66
2022/11/24 14:13:22;;;;;;;24.23;3.72;;;;;;;;;;5079710;28;20541;-66
2022/11/24 14:16:13;;;;;;;17.38;2.78;;;;;;;;;;5077306;28;20074;-66
2022/11/24 14:18:40;;;;;;;22.05;2.90;;;;;;;;;;5057827;28;20051;-66
2022/11/24 14:21:20;;;;;;;22.25;3.90;;;;;;;;;;5058010;28;20048;-66
2022/11/24 14:23:49;;;;;;;20.45;4.05;;;;;;;;;;5073558;28;20053;-66
2022/11/24 14:26:21;;;;;;;22.13;3.83;;;;;;;;;;5061104;28;20383;-66
2022/11/24 14:28:47;;;;;;;16.58;3.38;;;;;;;;;;5061965;28;20079;-66
2022/11/24 14:31:24;;;;;;;21.67;3.80;;;;;;;;;;5074720;28;20633;-66
2022/11/24 14:34:06;;;;;;;21.10;4.22;;;;;;;;;;5077757;28;20047;-66
2022/11/24 14:36:32;;;;;;;19.55;3.30;;;;;;;;;;5060775;28;20047;-65